sensor_id;sensor_type;location;lat;lon;timestamp;temperature;humidity
71188;DHT22;58893;53.130;8.158;2022-09-12T00:00:38;17.20;69.50
71188;DHT22;58893;53.130;8.158;2022-09-12T00:03:03;17.20;69.50
71188;DHT22;58893;53.130;8.158;2022-09-12T00:05:29;17.20;69.80
71188;DHT22;58893;53.130;8.158;2022-09-12T00:07:55;17.10;70.10
71188;DHT22;58893;53.130;8.158;2022-09-12T00:10:21;17.10;70.50
71188;DHT22;58893;53.130;8.158;2022-09-12T00:12:46;17.10;70.60
71188;DHT22;58893;53.130;8.158;2022-09-12T00:15:12;17.10;70.50
71188;DHT22;58893;53.130;8.158;2022-09-12T00:17:38;17.10;70.40
71188;DHT22;58893;53.130;8.158;2022-09-12T00:20:05;17.10;70.30
71188;DHT22;58893;53.130;8.158;2022-09-12T00:22:32;17.00;70.10
71188;DHT22;58893;53.130;8.158;2022-09-12T00:24:58;17.10;70.10
71188;DHT22;58893;53.130;8.158;2022-09-12T00:27:23;17.10;70.00
71188;DHT22;58893;53.130;8.158;2022-09-12T00:29:49;17.00;70.10
71188;DHT22;58893;53.130;8.158;2022-09-12T00:32:15;17.00;70.20
71188;DHT22;58893;53.130;8.158;2022-09-12T00:34:40;17.00;70.20
71188;DHT22;58893;53.130;8.158;2022-09-12T00:37:06;17.00;70.20
71188;DHT22;58893;53.130;8.158;2022-09-12T00:39:31;17.00;70.40
71188;DHT22;58893;53.130;8.158;2022-09-12T00:41:57;16.90;70.70
71188;DHT22;58893;53.130;8.158;2022-09-12T00:49:33;16.90;71.40
71188;DHT22;58893;53.130;8.158;2022-09-12T00:52:06;16.90;71.20
71188;DHT22;58893;53.130;8.158;2022-09-12T00:55:18;16.90;70.60
71188;DHT22;58893;53.130;8.158;2022-09-12T00:57:44;16.90;70.10
71188;DHT22;58893;53.130;8.158;2022-09-12T01:00:17;16.90;69.70
71188;DHT22;58893;53.130;8.158;2022-09-12T01:02:47;16.90;69.70
71188;DHT22;58893;53.130;8.158;2022-09-12T01:05:14;16.90;69.90
71188;DHT22;58893;53.130;8.158;2022-09-12T01:07:40;16.80;69.90
71188;DHT22;58893;53.130;8.158;2022-09-12T01:10:07;16.80;69.50
71188;DHT22;58893;53.130;8.158;2022-09-12T01:12:38;16.80;69.40
71188;DHT22;58893;53.130;8.158;2022-09-12T01:15:05;16.80;69.50
71188;DHT22;58893;53.130;8.158;2022-09-12T01:17:48;16.80;69.60
71188;DHT22;58893;53.130;8.158;2022-09-12T01:23:10;16.70;69.30
71188;DHT22;58893;53.130;8.158;2022-09-12T01:30:52;16.70;69.20
71188;DHT22;58893;53.130;8.158;2022-09-12T01:39:38;16.60;69.50
71188;DHT22;58893;53.130;8.158;2022-09-12T01:45:08;16.60;68.80
71188;DHT22;58893;53.130;8.158;2022-09-12T01:47:40;16.60;68.70
71188;DHT22;58893;53.130;8.158;2022-09-12T01:50:12;16.50;68.60
71188;DHT22;58893;53.130;8.158;2022-09-12T01:53:21;16.50;68.60
71188;DHT22;58893;53.130;8.158;2022-09-12T01:55:50;16.50;68.70
71188;DHT22;58893;53.130;8.158;2022-09-12T01:58:35;16.40;68.70
71188;DHT22;58893;53.130;8.158;2022-09-12T02:01:10;16.40;68.60
71188;DHT22;58893;53.130;8.158;2022-09-12T02:03:47;16.40;68.50
71188;DHT22;58893;53.130;8.158;2022-09-12T02:06:18;16.40;68.60
71188;DHT22;58893;53.130;8.158;2022-09-12T02:08:58;16.40;69.00
71188;DHT22;58893;53.130;8.158;2022-09-12T02:11:25;16.30;69.10
71188;DHT22;58893;53.130;8.158;2022-09-12T02:14:05;16.30;69.10
71188;DHT22;58893;53.130;8.158;2022-09-12T02:16:44;16.30;68.90
71188;DHT22;58893;53.130;8.158;2022-09-12T02:19:17;16.30;68.70
71188;DHT22;58893;53.130;8.158;2022-09-12T02:21:49;16.30;68.60
71188;DHT22;58893;53.130;8.158;2022-09-12T02:24:16;16.20;68.60
71188;DHT22;58893;53.130;8.158;2022-09-12T02:27:04;16.20;68.80
71188;DHT22;58893;53.130;8.158;2022-09-12T02:29:31;16.20;68.80
71188;DHT22;58893;53.130;8.158;2022-09-12T02:31:59;16.20;69.00
71188;DHT22;58893;53.130;8.158;2022-09-12T02:39:31;16.20;69.10
71188;DHT22;58893;53.130;8.158;2022-09-12T02:41:59;16.20;68.70
71188;DHT22;58893;53.130;8.158;2022-09-12T02:44:26;16.20;68.30
71188;DHT22;58893;53.130;8.158;2022-09-12T02:46:56;16.20;68.30
71188;DHT22;58893;53.130;8.158;2022-09-12T02:49:23;16.20;68.50
71188;DHT22;58893;53.130;8.158;2022-09-12T02:51:50;16.10;68.60
71188;DHT22;58893;53.130;8.158;2022-09-12T02:54:16;16.10;68.90
71188;DHT22;58893;53.130;8.158;2022-09-12T02:56:43;16.10;69.20
71188;DHT22;58893;53.130;8.158;2022-09-12T02:59:13;16.10;69.50
71188;DHT22;58893;53.130;8.158;2022-09-12T03:07:30;16.10;70.60
71188;DHT22;58893;53.130;8.158;2022-09-12T03:15:45;16.10;68.80
71188;DHT22;58893;53.130;8.158;2022-09-12T03:20:59;16.00;68.90
71188;DHT22;58893;53.130;8.158;2022-09-12T03:23:37;16.00;69.10
71188;DHT22;58893;53.130;8.158;2022-09-12T03:26:15;16.00;69.30
71188;DHT22;58893;53.130;8.158;2022-09-12T03:28:46;16.00;69.30
71188;DHT22;58893;53.130;8.158;2022-09-12T03:31:14;16.00;69.40
71188;DHT22;58893;53.130;8.158;2022-09-12T03:33:40;16.00;69.50
71188;DHT22;58893;53.130;8.158;2022-09-12T03:36:09;16.00;69.60
71188;DHT22;58893;53.130;8.158;2022-09-12T03:38:38;16.00;69.90
71188;DHT22;58893;53.130;8.158;2022-09-12T03:41:04;16.00;70.10
71188;DHT22;58893;53.130;8.158;2022-09-12T03:43:30;16.00;70.40
71188;DHT22;58893;53.130;8.158;2022-09-12T03:45:55;15.90;70.20
71188;DHT22;58893;53.130;8.158;2022-09-12T03:48:21;15.90;69.90
71188;DHT22;58893;53.130;8.158;2022-09-12T03:50:46;16.00;69.60
71188;DHT22;58893;53.130;8.158;2022-09-12T03:53:12;15.90;69.00
71188;DHT22;58893;53.130;8.158;2022-09-12T03:55:38;15.90;68.90
71188;DHT22;58893;53.130;8.158;2022-09-12T03:58:03;15.90;68.80
71188;DHT22;58893;53.130;8.158;2022-09-12T04:00:29;15.90;68.90
71188;DHT22;58893;53.130;8.158;2022-09-12T04:02:57;15.90;69.00
71188;DHT22;58893;53.130;8.158;2022-09-12T04:05:24;15.90;69.10
71188;DHT22;58893;53.130;8.158;2022-09-12T04:07:50;15.80;69.10
71188;DHT22;58893;53.130;8.158;2022-09-12T04:10:16;15.80;69.10
71188;DHT22;58893;53.130;8.158;2022-09-12T04:12:41;15.80;68.90
71188;DHT22;58893;53.130;8.158;2022-09-12T04:15:07;15.80;68.80
71188;DHT22;58893;53.130;8.158;2022-09-12T04:17:33;15.80;68.90
71188;DHT22;58893;53.130;8.158;2022-09-12T04:19:59;15.80;69.00
71188;DHT22;58893;53.130;8.158;2022-09-12T04:22:25;15.80;69.00
71188;DHT22;58893;53.130;8.158;2022-09-12T04:24:50;15.80;69.10
71188;DHT22;58893;53.130;8.158;2022-09-12T04:27:16;15.80;69.00
71188;DHT22;58893;53.130;8.158;2022-09-12T04:29:42;15.80;69.10
71188;DHT22;58893;53.130;8.158;2022-09-12T04:32:08;15.70;69.20
71188;DHT22;58893;53.130;8.158;2022-09-12T04:34:33;15.70;69.40
71188;DHT22;58893;53.130;8.158;2022-09-12T04:36:59;15.70;69.70
71188;DHT22;58893;53.130;8.158;2022-09-12T04:39:24;15.70;69.70
71188;DHT22;58893;53.130;8.158;2022-09-12T04:41:50;15.70;69.30
71188;DHT22;58893;53.130;8.158;2022-09-12T04:44:16;15.70;69.10
71188;DHT22;58893;53.130;8.158;2022-09-12T04:46:44;15.70;69.00
71188;DHT22;58893;53.130;8.158;2022-09-12T04:49:12;15.70;68.90
71188;DHT22;58893;53.130;8.158;2022-09-12T04:51:40;15.70;68.50
71188;DHT22;58893;53.130;8.158;2022-09-12T04:54:17;15.70;68.50
71188;DHT22;58893;53.130;8.158;2022-09-12T04:56:45;15.60;69.00
71188;DHT22;58893;53.130;8.158;2022-09-12T04:59:12;15.60;69.80
71188;DHT22;58893;53.130;8.158;2022-09-12T05:01:39;15.60;70.20
71188;DHT22;58893;53.130;8.158;2022-09-12T05:04:04;15.60;70.30
71188;DHT22;58893;53.130;8.158;2022-09-12T05:06:33;15.70;70.20
71188;DHT22;58893;53.130;8.158;2022-09-12T05:09:00;15.70;69.80
71188;DHT22;58893;53.130;8.158;2022-09-12T05:11:28;15.60;69.30
71188;DHT22;58893;53.130;8.158;2022-09-12T05:13:54;15.70;69.40
71188;DHT22;58893;53.130;8.158;2022-09-12T05:16:20;15.60;69.30
71188;DHT22;58893;53.130;8.158;2022-09-12T05:18:47;15.60;69.20
71188;DHT22;58893;53.130;8.158;2022-09-12T05:21:15;15.60;69.40
71188;DHT22;58893;53.130;8.158;2022-09-12T05:23:41;15.60;69.60
71188;DHT22;58893;53.130;8.158;2022-09-12T05:26:09;15.60;69.70
71188;DHT22;58893;53.130;8.158;2022-09-12T05:28:37;15.60;69.80
71188;DHT22;58893;53.130;8.158;2022-09-12T05:31:21;15.70;70.20
71188;DHT22;58893;53.130;8.158;2022-09-12T05:33:48;15.70;70.20
71188;DHT22;58893;53.130;8.158;2022-09-12T05:36:28;15.70;70.10
71188;DHT22;58893;53.130;8.158;2022-09-12T05:38:55;15.70;70.10
71188;DHT22;58893;53.130;8.158;2022-09-12T05:41:26;15.80;70.10
71188;DHT22;58893;53.130;8.158;2022-09-12T05:43:54;15.80;70.30
71188;DHT22;58893;53.130;8.158;2022-09-12T05:46:21;15.80;70.50
71188;DHT22;58893;53.130;8.158;2022-09-12T05:48:48;15.80;70.60
71188;DHT22;58893;53.130;8.158;2022-09-12T05:51:23;15.80;70.70
71188;DHT22;58893;53.130;8.158;2022-09-12T05:53:52;15.80;71.40
71188;DHT22;58893;53.130;8.158;2022-09-12T05:56:20;15.80;72.20
71188;DHT22;58893;53.130;8.158;2022-09-12T05:58:58;15.90;72.80
71188;DHT22;58893;53.130;8.158;2022-09-12T06:01:25;15.90;73.20
71188;DHT22;58893;53.130;8.158;2022-09-12T06:03:53;16.00;73.40
71188;DHT22;58893;53.130;8.158;2022-09-12T06:06:21;16.00;73.40
71188;DHT22;58893;53.130;8.158;2022-09-12T06:08:49;16.10;73.70
71188;DHT22;58893;53.130;8.158;2022-09-12T06:11:17;16.10;73.90
71188;DHT22;58893;53.130;8.158;2022-09-12T06:13:43;16.20;73.80
71188;DHT22;58893;53.130;8.158;2022-09-12T06:16:14;16.30;73.80
71188;DHT22;58893;53.130;8.158;2022-09-12T06:18:40;16.30;73.70
71188;DHT22;58893;53.130;8.158;2022-09-12T06:21:10;16.40;73.70
71188;DHT22;58893;53.130;8.158;2022-09-12T06:23:38;16.50;73.80
71188;DHT22;58893;53.130;8.158;2022-09-12T06:26:05;16.50;73.70
71188;DHT22;58893;53.130;8.158;2022-09-12T06:28:31;16.60;73.90
71188;DHT22;58893;53.130;8.158;2022-09-12T06:31:07;16.60;74.10
71188;DHT22;58893;53.130;8.158;2022-09-12T06:33:35;16.60;74.40
71188;DHT22;58893;53.130;8.158;2022-09-12T06:36:05;16.70;74.70
71188;DHT22;58893;53.130;8.158;2022-09-12T06:38:32;16.80;74.90
71188;DHT22;58893;53.130;8.158;2022-09-12T06:40:58;16.80;74.80
71188;DHT22;58893;53.130;8.158;2022-09-12T06:43:25;16.80;74.80
71188;DHT22;58893;53.130;8.158;2022-09-12T06:45:51;16.90;74.90
71188;DHT22;58893;53.130;8.158;2022-09-12T06:48:16;16.90;75.00
71188;DHT22;58893;53.130;8.158;2022-09-12T06:50:42;16.90;75.10
71188;DHT22;58893;53.130;8.158;2022-09-12T06:53:08;17.00;75.60
71188;DHT22;58893;53.130;8.158;2022-09-12T06:55:34;17.00;75.80
71188;DHT22;58893;53.130;8.158;2022-09-12T06:57:59;17.00;76.00
71188;DHT22;58893;53.130;8.158;2022-09-12T07:00:25;17.10;76.30
71188;DHT22;58893;53.130;8.158;2022-09-12T07:02:54;17.10;76.50
71188;DHT22;58893;53.130;8.158;2022-09-12T07:05:21;17.20;76.70
71188;DHT22;58893;53.130;8.158;2022-09-12T07:07:47;17.20;76.90
71188;DHT22;58893;53.130;8.158;2022-09-12T07:10:13;17.30;77.20
71188;DHT22;58893;53.130;8.158;2022-09-12T07:12:38;17.40;77.50
71188;DHT22;58893;53.130;8.158;2022-09-12T07:15:04;17.40;77.70
71188;DHT22;58893;53.130;8.158;2022-09-12T07:17:30;17.50;78.10
71188;DHT22;58893;53.130;8.158;2022-09-12T07:19:56;17.50;78.40
71188;DHT22;58893;53.130;8.158;2022-09-12T07:22:21;17.60;78.80
71188;DHT22;58893;53.130;8.158;2022-09-12T07:24:47;17.70;79.20
71188;DHT22;58893;53.130;8.158;2022-09-12T07:27:13;17.70;79.40
71188;DHT22;58893;53.130;8.158;2022-09-12T07:29:38;17.80;79.70
71188;DHT22;58893;53.130;8.158;2022-09-12T07:32:04;17.90;80.10
71188;DHT22;58893;53.130;8.158;2022-09-12T07:34:30;17.90;80.10
71188;DHT22;58893;53.130;8.158;2022-09-12T07:36:56;17.90;80.30
71188;DHT22;58893;53.130;8.158;2022-09-12T07:39:22;18.00;80.50
71188;DHT22;58893;53.130;8.158;2022-09-12T07:41:48;18.00;80.60
71188;DHT22;58893;53.130;8.158;2022-09-12T07:44:14;18.00;80.80
71188;DHT22;58893;53.130;8.158;2022-09-12T07:46:39;18.10;81.30
71188;DHT22;58893;53.130;8.158;2022-09-12T07:49:05;18.10;81.50
71188;DHT22;58893;53.130;8.158;2022-09-12T07:51:31;18.20;81.80
71188;DHT22;58893;53.130;8.158;2022-09-12T07:53:57;18.20;82.10
71188;DHT22;58893;53.130;8.158;2022-09-12T07:56:24;18.20;82.30
71188;DHT22;58893;53.130;8.158;2022-09-12T07:58:50;18.30;82.60
71188;DHT22;58893;53.130;8.158;2022-09-12T08:01:20;18.30;82.70
71188;DHT22;58893;53.130;8.158;2022-09-12T08:03:48;18.30;83.00
71188;DHT22;58893;53.130;8.158;2022-09-12T08:06:19;18.40;83.50
71188;DHT22;58893;53.130;8.158;2022-09-12T08:08:46;18.40;83.80
71188;DHT22;58893;53.130;8.158;2022-09-12T08:11:13;18.50;84.20
71188;DHT22;58893;53.130;8.158;2022-09-12T08:13:40;18.50;84.40
71188;DHT22;58893;53.130;8.158;2022-09-12T08:16:11;18.50;84.60
71188;DHT22;58893;53.130;8.158;2022-09-12T08:18:38;18.50;84.90
71188;DHT22;58893;53.130;8.158;2022-09-12T08:21:13;18.60;85.20
71188;DHT22;58893;53.130;8.158;2022-09-12T08:23:39;18.60;85.50
71188;DHT22;58893;53.130;8.158;2022-09-12T08:26:05;18.60;85.90
71188;DHT22;58893;53.130;8.158;2022-09-12T08:28:32;18.70;86.40
71188;DHT22;58893;53.130;8.158;2022-09-12T08:31:07;18.70;86.90
71188;DHT22;58893;53.130;8.158;2022-09-12T08:33:33;18.70;87.30
71188;DHT22;58893;53.130;8.158;2022-09-12T08:36:07;18.80;87.50
71188;DHT22;58893;53.130;8.158;2022-09-12T08:38:34;18.80;87.70
71188;DHT22;58893;53.130;8.158;2022-09-12T08:41:10;18.90;88.20
71188;DHT22;58893;53.130;8.158;2022-09-12T08:52:12;19.00;89.40
71188;DHT22;58893;53.130;8.158;2022-09-12T08:54:39;19.00;89.40
71188;DHT22;58893;53.130;8.158;2022-09-12T08:57:07;19.10;89.50
71188;DHT22;58893;53.130;8.158;2022-09-12T08:59:40;19.10;89.40
71188;DHT22;58893;53.130;8.158;2022-09-12T09:13:50;19.30;89.00
71188;DHT22;58893;53.130;8.158;2022-09-12T09:16:41;19.40;89.10
71188;DHT22;58893;53.130;8.158;2022-09-12T09:19:20;19.40;88.70
71188;DHT22;58893;53.130;8.158;2022-09-12T09:24:25;19.50;88.30
71188;DHT22;58893;53.130;8.158;2022-09-12T09:27:01;19.50;87.70
71188;DHT22;58893;53.130;8.158;2022-09-12T09:29:35;19.50;87.00
71188;DHT22;58893;53.130;8.158;2022-09-12T09:32:08;19.50;86.40
71188;DHT22;58893;53.130;8.158;2022-09-12T09:34:38;19.60;85.80
71188;DHT22;58893;53.130;8.158;2022-09-12T09:37:25;19.60;85.00
71188;DHT22;58893;53.130;8.158;2022-09-12T09:42:39;19.60;83.90
71188;DHT22;58893;53.130;8.158;2022-09-12T09:45:19;19.70;84.00
71188;DHT22;58893;53.130;8.158;2022-09-12T09:50:26;19.80;84.40
71188;DHT22;58893;53.130;8.158;2022-09-12T09:52:54;19.80;84.50
71188;DHT22;58893;53.130;8.158;2022-09-12T09:55:25;19.90;84.70
71188;DHT22;58893;53.130;8.158;2022-09-12T09:57:52;19.90;84.80
71188;DHT22;58893;53.130;8.158;2022-09-12T10:03:37;20.00;83.50
71188;DHT22;58893;53.130;8.158;2022-09-12T10:06:28;20.00;82.40
71188;DHT22;58893;53.130;8.158;2022-09-12T10:11:40;20.00;80.30
71188;DHT22;58893;53.130;8.158;2022-09-12T10:14:41;20.10;79.90
71188;DHT22;58893;53.130;8.158;2022-09-12T10:17:30;20.10;80.00
71188;DHT22;58893;53.130;8.158;2022-09-12T10:19:57;20.10;79.70
71188;DHT22;58893;53.130;8.158;2022-09-12T10:22:26;20.20;79.40
71188;DHT22;58893;53.130;8.158;2022-09-12T10:24:57;20.20;78.90
71188;DHT22;58893;53.130;8.158;2022-09-12T10:27:29;20.30;78.30
71188;DHT22;58893;53.130;8.158;2022-09-12T10:30:16;20.30;77.80
71188;DHT22;58893;53.130;8.158;2022-09-12T10:32:45;20.40;77.50
71188;DHT22;58893;53.130;8.158;2022-09-12T10:37:58;20.40;76.20
71188;DHT22;58893;53.130;8.158;2022-09-12T10:40:30;20.40;75.50
71188;DHT22;58893;53.130;8.158;2022-09-12T10:42:59;20.40;74.90
71188;DHT22;58893;53.130;8.158;2022-09-12T10:45:33;20.50;74.70
71188;DHT22;58893;53.130;8.158;2022-09-12T10:50:46;20.50;73.40
71188;DHT22;58893;53.130;8.158;2022-09-12T10:56:03;20.60;71.90
71188;DHT22;58893;53.130;8.158;2022-09-12T11:18:12;20.80;67.50
71188;DHT22;58893;53.130;8.158;2022-09-12T11:26:32;20.90;67.00
71188;DHT22;58893;53.130;8.158;2022-09-12T11:32:09;20.90;67.80
71188;DHT22;58893;53.130;8.158;2022-09-12T11:42:51;21.10;67.80
71188;DHT22;58893;53.130;8.158;2022-09-12T11:45:41;21.10;67.40
71188;DHT22;58893;53.130;8.158;2022-09-12T11:48:14;21.10;67.20
71188;DHT22;58893;53.130;8.158;2022-09-12T11:50:42;21.10;67.10
71188;DHT22;58893;53.130;8.158;2022-09-12T11:53:18;21.20;66.90
71188;DHT22;58893;53.130;8.158;2022-09-12T11:58:30;21.20;65.40
71188;DHT22;58893;53.130;8.158;2022-09-12T12:01:02;21.20;64.60
71188;DHT22;58893;53.130;8.158;2022-09-12T12:03:41;21.20;64.60
71188;DHT22;58893;53.130;8.158;2022-09-12T12:06:31;21.20;64.80
71188;DHT22;58893;53.130;8.158;2022-09-12T12:08:58;21.30;64.80
71188;DHT22;58893;53.130;8.158;2022-09-12T12:11:30;21.30;64.60
71188;DHT22;58893;53.130;8.158;2022-09-12T12:14:06;21.40;64.70
71188;DHT22;58893;53.130;8.158;2022-09-12T12:16:37;21.40;64.90
71188;DHT22;58893;53.130;8.158;2022-09-12T12:21:43;21.50;64.10
71188;DHT22;58893;53.130;8.158;2022-09-12T12:34:46;21.70;62.60
71188;DHT22;58893;53.130;8.158;2022-09-12T12:44:57;21.90;61.40
71188;DHT22;58893;53.130;8.158;2022-09-12T12:47:42;21.90;61.00
71188;DHT22;58893;53.130;8.158;2022-09-12T12:53:03;21.90;60.20
71188;DHT22;58893;53.130;8.158;2022-09-12T12:55:36;21.90;60.00
71188;DHT22;58893;53.130;8.158;2022-09-12T12:58:40;21.90;59.70
71188;DHT22;58893;53.130;8.158;2022-09-12T13:01:14;22.00;59.00
71188;DHT22;58893;53.130;8.158;2022-09-12T13:03:43;22.00;58.30
71188;DHT22;58893;53.130;8.158;2022-09-12T13:08:58;22.00;58.30
71188;DHT22;58893;53.130;8.158;2022-09-12T13:11:43;22.00;58.50
71188;DHT22;58893;53.130;8.158;2022-09-12T13:16:59;22.00;58.80
71188;DHT22;58893;53.130;8.158;2022-09-12T13:19:28;22.00;58.70
71188;DHT22;58893;53.130;8.158;2022-09-12T13:22:03;22.10;58.80
71188;DHT22;58893;53.130;8.158;2022-09-12T13:24:29;22.10;58.80
71188;DHT22;58893;53.130;8.158;2022-09-12T13:26:55;22.10;58.70
71188;DHT22;58893;53.130;8.158;2022-09-12T13:29:23;22.20;58.50
71188;DHT22;58893;53.130;8.158;2022-09-12T13:32:08;22.20;58.20
71188;DHT22;58893;53.130;8.158;2022-09-12T13:34:39;22.20;57.90
71188;DHT22;58893;53.130;8.158;2022-09-12T13:45:31;22.20;57.80
71188;DHT22;58893;53.130;8.158;2022-09-12T13:47:58;22.20;58.10
71188;DHT22;58893;53.130;8.158;2022-09-12T13:50:27;22.20;58.40
71188;DHT22;58893;53.130;8.158;2022-09-12T13:52:58;22.30;58.30
71188;DHT22;58893;53.130;8.158;2022-09-12T13:55:36;22.30;58.30
71188;DHT22;58893;53.130;8.158;2022-09-12T13:58:16;22.30;58.30
71188;DHT22;58893;53.130;8.158;2022-09-12T14:00:43;22.30;58.20
71188;DHT22;58893;53.130;8.158;2022-09-12T14:03:28;22.30;58.40
71188;DHT22;58893;53.130;8.158;2022-09-12T14:06:13;22.40;58.60
71188;DHT22;58893;53.130;8.158;2022-09-12T14:08:42;22.40;58.10
71188;DHT22;58893;53.130;8.158;2022-09-12T14:11:19;22.40;57.30
71188;DHT22;58893;53.130;8.158;2022-09-12T14:13:45;22.40;57.20
71188;DHT22;58893;53.130;8.158;2022-09-12T14:16:11;22.40;57.00
71188;DHT22;58893;53.130;8.158;2022-09-12T14:18:38;22.40;56.30
71188;DHT22;58893;53.130;8.158;2022-09-12T14:21:10;22.40;56.00
71188;DHT22;58893;53.130;8.158;2022-09-12T14:23:41;22.40;55.80
71188;DHT22;58893;53.130;8.158;2022-09-12T14:26:11;22.40;55.70
71188;DHT22;58893;53.130;8.158;2022-09-12T14:28:44;22.40;56.00
71188;DHT22;58893;53.130;8.158;2022-09-12T14:33:50;22.40;56.10
71188;DHT22;58893;53.130;8.158;2022-09-12T14:36:32;22.40;56.30
71188;DHT22;58893;53.130;8.158;2022-09-12T14:39:02;22.40;56.20
71188;DHT22;58893;53.130;8.158;2022-09-12T14:41:32;22.40;56.10
71188;DHT22;58893;53.130;8.158;2022-09-12T14:44:01;22.50;56.60
71188;DHT22;58893;53.130;8.158;2022-09-12T14:46:36;22.50;55.70
71188;DHT22;58893;53.130;8.158;2022-09-12T14:49:19;22.50;55.50
71188;DHT22;58893;53.130;8.158;2022-09-12T14:52:00;22.50;55.40
71188;DHT22;58893;53.130;8.158;2022-09-12T14:57:00;22.50;55.70
71188;DHT22;58893;53.130;8.158;2022-09-12T15:02:30;22.50;56.10
71188;DHT22;58893;53.130;8.158;2022-09-12T15:10:31;22.50;55.20
71188;DHT22;58893;53.130;8.158;2022-09-12T15:15:34;22.50;54.90
71188;DHT22;58893;53.130;8.158;2022-09-12T15:18:00;22.50;54.70
71188;DHT22;58893;53.130;8.158;2022-09-12T15:20:25;22.50;55.20
71188;DHT22;58893;53.130;8.158;2022-09-12T15:22:51;22.50;54.80
71188;DHT22;58893;53.130;8.158;2022-09-12T15:25:17;22.50;55.20
71188;DHT22;58893;53.130;8.158;2022-09-12T15:27:46;22.50;55.70
71188;DHT22;58893;53.130;8.158;2022-09-12T15:30:12;22.50;56.20
71188;DHT22;58893;53.130;8.158;2022-09-12T15:32:42;22.60;56.20
71188;DHT22;58893;53.130;8.158;2022-09-12T15:35:22;22.60;56.00
71188;DHT22;58893;53.130;8.158;2022-09-12T15:37:50;22.60;55.90
71188;DHT22;58893;53.130;8.158;2022-09-12T15:40:16;22.50;55.70
71188;DHT22;58893;53.130;8.158;2022-09-12T15:42:42;22.60;55.90
71188;DHT22;58893;53.130;8.158;2022-09-12T15:45:18;22.60;56.00
71188;DHT22;58893;53.130;8.158;2022-09-12T15:47:44;22.50;56.60
71188;DHT22;58893;53.130;8.158;2022-09-12T15:50:10;22.60;56.60
71188;DHT22;58893;53.130;8.158;2022-09-12T15:52:36;22.50;56.90
71188;DHT22;58893;53.130;8.158;2022-09-12T15:55:03;22.60;57.40
71188;DHT22;58893;53.130;8.158;2022-09-12T15:57:28;22.60;57.70
71188;DHT22;58893;53.130;8.158;2022-09-12T15:59:54;22.50;57.80
71188;DHT22;58893;53.130;8.158;2022-09-12T16:02:20;22.60;58.00
71188;DHT22;58893;53.130;8.158;2022-09-12T16:04:45;22.60;57.90
71188;DHT22;58893;53.130;8.158;2022-09-12T16:07:12;22.50;57.60
71188;DHT22;58893;53.130;8.158;2022-09-12T16:09:38;22.60;57.60
71188;DHT22;58893;53.130;8.158;2022-09-12T16:12:04;22.60;57.60
71188;DHT22;58893;53.130;8.158;2022-09-12T16:14:30;22.60;57.60
71188;DHT22;58893;53.130;8.158;2022-09-12T16:16:55;22.60;57.60
71188;DHT22;58893;53.130;8.158;2022-09-12T16:19:21;22.60;57.80
71188;DHT22;58893;53.130;8.158;2022-09-12T16:21:47;22.60;58.10
71188;DHT22;58893;53.130;8.158;2022-09-12T16:24:13;22.50;58.10
71188;DHT22;58893;53.130;8.158;2022-09-12T16:26:38;22.60;58.40
71188;DHT22;58893;53.130;8.158;2022-09-12T16:29:04;22.60;58.30
71188;DHT22;58893;53.130;8.158;2022-09-12T16:31:29;22.60;58.30
71188;DHT22;58893;53.130;8.158;2022-09-12T16:33:55;22.60;58.20
71188;DHT22;58893;53.130;8.158;2022-09-12T16:36:21;22.60;58.20
71188;DHT22;58893;53.130;8.158;2022-09-12T16:38:49;22.50;58.20
71188;DHT22;58893;53.130;8.158;2022-09-12T16:41:17;22.50;58.30
71188;DHT22;58893;53.130;8.158;2022-09-12T16:43:42;22.50;58.20
71188;DHT22;58893;53.130;8.158;2022-09-12T16:46:17;22.50;58.00
71188;DHT22;58893;53.130;8.158;2022-09-12T16:48:48;22.50;58.00
71188;DHT22;58893;53.130;8.158;2022-09-12T16:51:15;22.50;58.00
71188;DHT22;58893;53.130;8.158;2022-09-12T16:53:41;22.50;58.10
71188;DHT22;58893;53.130;8.158;2022-09-12T16:56:07;22.40;58.60
71188;DHT22;58893;53.130;8.158;2022-09-12T16:58:35;22.40;58.00
71188;DHT22;58893;53.130;8.158;2022-09-12T17:01:03;22.40;58.20
71188;DHT22;58893;53.130;8.158;2022-09-12T17:03:29;22.40;58.40
71188;DHT22;58893;53.130;8.158;2022-09-12T17:06:13;22.40;58.40
71188;DHT22;58893;53.130;8.158;2022-09-12T17:08:41;22.40;58.50
71188;DHT22;58893;53.130;8.158;2022-09-12T17:11:15;22.30;58.60
71188;DHT22;58893;53.130;8.158;2022-09-12T17:13:49;22.30;58.70
71188;DHT22;58893;53.130;8.158;2022-09-12T17:16:15;22.30;58.90
71188;DHT22;58893;53.130;8.158;2022-09-12T17:18:41;22.30;59.20
71188;DHT22;58893;53.130;8.158;2022-09-12T17:21:08;22.30;59.50
71188;DHT22;58893;53.130;8.158;2022-09-12T17:23:34;22.30;59.80
71188;DHT22;58893;53.130;8.158;2022-09-12T17:26:00;22.30;60.10
71188;DHT22;58893;53.130;8.158;2022-09-12T17:28:26;22.30;60.40
71188;DHT22;58893;53.130;8.158;2022-09-12T17:31:00;22.20;60.50
71188;DHT22;58893;53.130;8.158;2022-09-12T17:33:26;22.20;60.60
71188;DHT22;58893;53.130;8.158;2022-09-12T17:35:51;22.20;60.70
71188;DHT22;58893;53.130;8.158;2022-09-12T17:38:18;22.20;60.80
71188;DHT22;58893;53.130;8.158;2022-09-12T17:40:43;22.20;61.00
71188;DHT22;58893;53.130;8.158;2022-09-12T17:43:13;22.10;61.10
71188;DHT22;58893;53.130;8.158;2022-09-12T17:45:39;22.10;61.20
71188;DHT22;58893;53.130;8.158;2022-09-12T17:48:06;22.10;61.30
71188;DHT22;58893;53.130;8.158;2022-09-12T17:50:39;22.00;61.30
71188;DHT22;58893;53.130;8.158;2022-09-12T17:53:05;22.00;61.30
71188;DHT22;58893;53.130;8.158;2022-09-12T17:55:35;22.00;61.40
71188;DHT22;58893;53.130;8.158;2022-09-12T17:58:01;21.90;61.20
71188;DHT22;58893;53.130;8.158;2022-09-12T18:00:28;21.90;61.20
71188;DHT22;58893;53.130;8.158;2022-09-12T18:03:12;21.90;61.20
71188;DHT22;58893;53.130;8.158;2022-09-12T18:05:45;21.90;61.10
71188;DHT22;58893;53.130;8.158;2022-09-12T18:08:12;21.90;61.10
71188;DHT22;58893;53.130;8.158;2022-09-12T18:10:37;21.80;61.00
71188;DHT22;58893;53.130;8.158;2022-09-12T18:13:03;21.80;61.10
71188;DHT22;58893;53.130;8.158;2022-09-12T18:15:29;21.80;61.20
71188;DHT22;58893;53.130;8.158;2022-09-12T18:17:55;21.80;61.20
71188;DHT22;58893;53.130;8.158;2022-09-12T18:20:21;21.70;61.10
71188;DHT22;58893;53.130;8.158;2022-09-12T18:22:48;21.70;60.90
71188;DHT22;58893;53.130;8.158;2022-09-12T18:25:14;21.70;60.80
71188;DHT22;58893;53.130;8.158;2022-09-12T18:27:39;21.70;60.60
71188;DHT22;58893;53.130;8.158;2022-09-12T18:30:06;21.60;60.50
71188;DHT22;58893;53.130;8.158;2022-09-12T18:32:31;21.60;60.50
71188;DHT22;58893;53.130;8.158;2022-09-12T18:34:57;21.60;60.50
71188;DHT22;58893;53.130;8.158;2022-09-12T18:37:22;21.60;60.90
71188;DHT22;58893;53.130;8.158;2022-09-12T18:39:48;21.50;61.10
71188;DHT22;58893;53.130;8.158;2022-09-12T18:42:13;21.50;61.60